Portada
METAR-TAF:

METAR-TAF

Aeroports :

Jamshedpur, Índia

latitud: 22-48-49N, longitud: 086-10-05E, altitud: 146 m

Observació

L'informe es va fer fa 51 minuts, a les 09:00 UTC
Vent 2 kt del Nord-Oest
Temperatura 31°C
Humitat 43%
Pressió 1008 hPa
Visibilitat: 5000 m
Núvols disperses a una alçada de 2000 ft
Cel ennuvolat a una alçada de 10000 ft
calitja

METAR: VEJS 190900Z 32002KT 5000 HZ SCT020 BKN100 31/17 Q1008

Hora: 15:21 (09:51 UTC)

Pronòstic

L'informe es va fer fa 1 hora i 51 minuts, a les 08:00 UTC
Pronòstic vàlid del 19 a les 09 UTC al 19 a les 18 UTC
Vent 3 kt del Sud-Est
Visibilitat: 5000 m
Núvols disperses a una alçada de 2000 ft
Núvols disperses a una alçada de 10000 ft
calitja
Evolucionant progressivament
l' 19 a les 15 UTC al 19 a les 17 UTC
Vent 3 kt del Sud/Sud-Oest
Visibilitat: 3000 m
calitja

TAF: VEJS 190800Z 1909/1918 13003KT 5000 HZ SCT020 SCT100 BECMG 1915/1917 20003KT 3000 HZ NSC

Observacions i pronòstics meteorològics de més de 4000 aeroports (METAR i TAF).

Les estacions disponibles són els punts grocs i vermells al mapa.

Posi el ratolí al punt desitjat per veure el nom de l'estació.

Feu clic per veure les observacions i els pronòstics meteorològics.

Per canviar el mapa: feu clic els botons verds amb una creu de color negre per apropar; al botó verd amb un guió per allunyar la imatge; o en les fletxes verdes per a mapes adjacents.


METAR-TAF: